100LL.CA
Aviation Fuel Pricing for Canadians
Please upgrade your browser - Tested with IE9, FireFox, Chrome, Safari

Fuel Airports Other Help
Prices Economy Info List METAR/TAF Kneeboard Help

Reference Airport: QUESNEL, BC
N 53 01 34  W 122 30 37
Provinces to show:

CYQZ QUESNEL, BC
WEATHER
METARCYQZ 131800Z AUTO VRB02KT 9SM CLR 07/M07 A3002 RMK SLP184
TAFTAF CYQZ 131140Z 1312/1324 VRB03KT P6SM SCT240 RMK FCST BASED ON AUTO OBS. NXT FCST BY 131900Z
OTHER SITES

FlightAware

FltPlan

Google Maps

SkyVector
FUEL
FBO 100LL
member
100LL
public
JETA MOGAS
Opr (2023-10-17)2.4612.5902.106
Canada Flight Supplement - CYQZ
(opens in new tab/window)


Please Send Updates!

Desktop Version ]  [ Mobile Version ]  [ Disclaimer ]